Ellipsis — WDE4581 — position and weather

sailwx.info

Track history (hours):
 
Tides and Currents Weather Stations Pressure Air Temp Water Temp Dewpoint Dewpoint Depression Visibility Wind Speed Wind Dir Waves Ship Positions

Ellipsis

Owner: Gulledge, Carl L, Redmond, WA. More information available from US FCC via Universal Licensing System and Coast Guard Vessel Documentation Center.

Last reported at 2016-Jul-31 20:30 UTC. Time now 2016-Aug-24 21:32 UTC.
Position N 47°44' W 122°31'.
Warning: this ship's position is 24 days out of date.

Length 19 m.

Type: Pleasure craft. MMSI: 367355160.

Date/timePositionNaut miles runAvg speedWind from/ knotsBaromVisibWave heightAir tempDewpointWater temp
2016-Jul-31 20:30N 47°44' W 122°31'7 7.4
2016-Jul-31 19:33N 47°51' W 122°29'41 7.6
2016-Jul-31 14:13N 48°25' W 123°03'6 9.5
2016-Jul-31 13:33N 48°30' W 123°09'7 6.7
2016-Jul-31 12:32N 48°37' W 123°10'  
2016-Jul-27 01:23N 48°30' W 123°17'7 8.2
2016-Jul-27 00:33N 48°23' W 123°18'38 7.5
2016-Jul-26 19:33N 48°26' W 124°15'8 7.7
2016-Jul-26 18:33N 48°28' W 124°26'8 8.1
2016-Jul-26 17:33N 48°32' W 124°37'9 8.4
2016-Jul-26 16:32N 48°36' W 124°48'29 0.6
2016-Jul-24 17:09N 48°56' W 125°21'5 8.0
2016-Jul-24 16:34N 48°55' W 125°28'3 3.4
2016-Jul-24 15:31N 48°57' W 125°33'0 0.0
2016-Jul-24 14:31N 48°57' W 125°33'0 0.0
2016-Jul-24 13:32N 48°57' W 125°33'0 0.0
2016-Jul-24 12:32N 48°57' W 125°33'0 0.0
2016-Jul-24 11:31N 48°57' W 125°33'0 0.0
2016-Jul-24 10:31N 48°57' W 125°33'0 0.0
2016-Jul-24 09:31N 48°57' W 125°33'0 0.0
2016-Jul-24 08:32N 48°57' W 125°33'0 0.0
2016-Jul-24 07:32N 48°57' W 125°33'0 0.0
2016-Jul-24 06:29N 48°57' W 125°33'0 0.0
2016-Jul-24 05:32N 48°57' W 125°33'0 0.0
2016-Jul-24 04:32N 48°57' W 125°33'0 0.0
2016-Jul-24 03:32N 48°57' W 125°33'0 0.0
2016-Jul-24 02:32N 48°57' W 125°33'0 0.0
2016-Jul-24 01:32N 48°57' W 125°33'0 0.0
2016-Jul-24 00:32N 48°57' W 125°33'0 0.0
2016-Jul-23 23:32N 48°57' W 125°33'0 0.0
2016-Jul-23 22:32N 48°57' W 125°33'0 0.0
2016-Jul-23 21:32N 48°57' W 125°33'0 0.0
2016-Jul-23 20:29N 48°57' W 125°33'0 0.0
2016-Jul-23 19:32N 48°57' W 125°33'2 2.2
2016-Jul-23 18:33N 48°55' W 125°30'  
Track history (hours):
 
Tides and Currents Weather Stations Pressure Air Temp Water Temp Dewpoint Dewpoint Depression Visibility Wind Speed Wind Dir Waves Ship Positions

Ellipsis

Owner: Gulledge, Carl L, Redmond, WA. More information available from US FCC via Universal Licensing System and Coast Guard Vessel Documentation Center.

Last reported at 2016-Jul-31 20:30 UTC. Time now 2016-Aug-24 21:32 UTC.
Position N 47°44' W 122°31'.
Warning: this ship's position is 24 days out of date.

Length 19 m.

Type: Pleasure craft. MMSI: 367355160.

Date/timePositionNaut miles runAvg speedWind from/ knotsBaromVisibWave heightAir tempDewpointWater temp
2016-Jul-31 20:30N 47°44' W 122°31'7 7.4
2016-Jul-31 19:33N 47°51' W 122°29'41 7.6
2016-Jul-31 14:13N 48°25' W 123°03'6 9.5
2016-Jul-31 13:33N 48°30' W 123°09'7 6.7
2016-Jul-31 12:32N 48°37' W 123°10'  
2016-Jul-27 01:23N 48°30' W 123°17'7 8.2
2016-Jul-27 00:33N 48°23' W 123°18'38 7.5
2016-Jul-26 19:33N 48°26' W 124°15'8 7.7
2016-Jul-26 18:33N 48°28' W 124°26'8 8.1
2016-Jul-26 17:33N 48°32' W 124°37'9 8.4
2016-Jul-26 16:32N 48°36' W 124°48'29 0.6
2016-Jul-24 17:09N 48°56' W 125°21'5 8.0
2016-Jul-24 16:34N 48°55' W 125°28'3 3.4
2016-Jul-24 15:31N 48°57' W 125°33'0 0.0
2016-Jul-24 14:31N 48°57' W 125°33'0 0.0
2016-Jul-24 13:32N 48°57' W 125°33'0 0.0
2016-Jul-24 12:32N 48°57' W 125°33'0 0.0
2016-Jul-24 11:31N 48°57' W 125°33'0 0.0
2016-Jul-24 10:31N 48°57' W 125°33'0 0.0
2016-Jul-24 09:31N 48°57' W 125°33'0 0.0
2016-Jul-24 08:32N 48°57' W 125°33'0 0.0
2016-Jul-24 07:32N 48°57' W 125°33'0 0.0
2016-Jul-24 06:29N 48°57' W 125°33'0 0.0
2016-Jul-24 05:32N 48°57' W 125°33'0 0.0
2016-Jul-24 04:32N 48°57' W 125°33'0 0.0
2016-Jul-24 03:32N 48°57' W 125°33'0 0.0
2016-Jul-24 02:32N 48°57' W 125°33'0 0.0
2016-Jul-24 01:32N 48°57' W 125°33'0 0.0
2016-Jul-24 00:32N 48°57' W 125°33'0 0.0
2016-Jul-23 23:32N 48°57' W 125°33'0 0.0
2016-Jul-23 22:32N 48°57' W 125°33'0 0.0
2016-Jul-23 21:32N 48°57' W 125°33'0 0.0
2016-Jul-23 20:29N 48°57' W 125°33'0 0.0
2016-Jul-23 19:32N 48°57' W 125°33'2 2.2
2016-Jul-23 18:33N 48°55' W 125°30'  

Dump ship's entire track history